Historyczne dane pomiarowe

Dodano dane terminowe – wersja testowa.

Dane z okresu 1951-2019

Wersja bazy: 1.34 [2019-03-16, lista zmian], aktualizacja planowana na 2019-04-15

Dane meteo z obszaru Polski uzyskane na podstawie danych udostępnionych przez Instytut Meteorologii i Gospodarki Wodnej – Państwowy Instytut Badawczy.

 

Wybierz Datę:    

       

TemperaturaWilgotnośćWiatrCiśnienieOpadyŚniegCzas trwania zjawisk
 Stacja t tx tn tng RH VA  wxwx mslp ppp RRR   cm mm wxwxwxwxwxwxwx
1987-08-14 14.4 17.6 10.0- 88.3- 7.0 2.7---- 2.0------------
1987-08-13 13.7 19.6 7.8- 86.5- 5.0 2.3---- 0.0------------
1987-08-12 12.7 17.6 9.7- 86.8- 4.7 2.7---- 1.7------------
1987-08-11 14.0 17.8 11.3- 93.8- 4.7 2.7---- 6.3------------
1987-08-10 14.7 18.1 12.9- 89.5- 5.3 2.0---- 3.6------------
1987-08-09 15.3 21.1 10.5- 82.8- 5.3 2.0---- 9.0------------
1987-08-08 14.4 21.2 6.7- 72.5- 1.3 3.3---- 1.1------------
1987-08-07 13.2 17.6 8.0- 76.0- 3.7 3.3---- 0.0------------
1987-08-06 11.5 15.0 10.3- 92.8- 7.0 4.3---- 0.6------------
1987-08-05 11.3 15.5 9.0- 89.3- 7.0 4.7---- 3.3------------
1987-08-04 13.0 16.9 10.0- 84.8- 2.3 4.3---- 1.9------------
1987-08-03 13.5 17.6 10.0- 81.0- 5.3 3.3---- 4.8------------
1987-08-02 13.7 18.6 9.3- 78.5- 4.7 4.7---- 0.1------------
1987-08-01 15.0 17.6 13.6- 91.5- 7.7 4.0---- 1.2------------
1987-07-31 16.1 20.1 14.5- 84.0- 6.7 2.7---- 0.3------------
1987-07-30 16.5 21.1 12.0- 80.5- 6.7 2.3---- 7.8------------
1987-07-29 14.8 18.6 12.4- 73.5- 4.0 4.3---- 0.0------------
1987-07-28 14.9 19.3 11.0- 78.3- 3.0 5.3---- 0.0------------
1987-07-27 12.3 16.1 10.0- 83.3- 5.3 5.3---- 3.2------------
1987-07-26 14.2 18.1 10.0- 75.8- 3.0 5.0---- 0.2------------
1987-07-25 17.1 21.1 15.1- 80.5- 3.7 4.3---- 0.0------------
1987-07-24 19.5 23.6 16.1- 79.8- 1.0 3.7---- 0.0------------
1987-07-23 19.8 25.5 15.1- 87.0- 5.3 0.7---- 7.9------------
1987-07-22 19.3 25.6 10.5- 88.3- 6.0 2.0---- 10.1------------
1987-07-21 19.2 25.5 10.7- 78.3- 1.3 1.3---- 0.0------------
1987-07-20 16.9 24.5 15.9- 93.3- 6.0 1.0---- 12.5------------
1987-07-19 18.6 24.5 16.3- 87.5- 6.7 4.0---- 15.8------------
1987-07-18 21.5 27.0 17.6- 79.8- 4.7 5.7---- 0.0------------
1987-07-17 20.7 27.0 14.0- 70.0- 3.3 7.3---- 0.5------------
1987-07-16 17.5 22.6 11.3- 68.5- 3.0 2.7---- 0.0------------
1987-07-15 17.1 23.6 10.2- 65.5- 0.3 1.0---- 0.0------------
1987-07-14 16.6 21.1 11.0- 68.3- 2.0 3.3---- 0.0------------
1987-07-13 14.8 20.1 12.0- 76.5- 5.7 6.3---- 0.0------------
1987-07-12 17.0 20.1 15.1- 91.5- 6.3 4.0---- 2.1------------
1987-07-11 12.7 15.6 10.0- 94.5- 8.0 2.3---- 8.0------------
1987-07-10 13.0 17.1 10.0- 78.3- 3.0 5.3---- 0.4------------
1987-07-09 16.5 23.1 15.1- 78.0- 4.0 4.3---- 3.3------------
1987-07-08 22.2 30.0 15.6- 70.5- 2.7 2.7---- 8.9------------
1987-07-07 21.3 27.5 7.5- 56.8- 0.0 3.0---- 0.0------------
1987-07-06 17.5 26.0 7.3- 64.0- 1.3 1.3---- 0.0------------
1987-07-05 16.2 21.7 9.5- 68.3- 2.3 4.0---- 0.0------------
1987-07-04 17.3 23.1 11.0- 69.3- 3.7 3.3---- 0.0------------
1987-07-03 17.4 22.6 9.5- 68.0- 0.3 2.0---- 0.0------------
1987-07-02 19.0 24.1 12.7- 65.5- 1.0 3.7---- 0.0------------
1987-07-01 23.7 31.0 20.5- 83.8- 4.7 3.7---- 0.0------------
1987-06-30 23.8 29.5 18.1- 83.0- 4.0 2.3---- 0.0------------
1987-06-29 17.5 23.1 10.3- 90.5- 6.3 2.3---- 0.4------------
1987-06-28 17.0 20.1 14.3- 81.0- 4.0 2.0---- 1.9------------
1987-06-27 17.5 22.1 10.0- 72.8- 4.0 3.7---- 0.0------------
1987-06-26 17.0 21.1 11.0- 74.3- 2.0 3.3---- 0.0------------
1987-06-25 14.0 18.1 10.2- 77.3- 4.0 3.7---- 0.0------------
1987-06-24 15.1 19.6 12.0- 80.5- 5.0 3.7---- 0.9------------
1987-06-23 16.1 20.1 13.0- 81.0- 5.0 2.0---- 0.6------------
1987-06-22 17.9 22.4 13.2- 83.8- 4.0 3.7---- 0.0------------
1987-06-21 18.7 24.6 13.0- 67.5- 3.3 4.3---- 0.0------------
1987-06-20 16.6 22.1 8.5- 64.8- 2.7 4.3---- 0.0------------
1987-06-19 12.9 17.1 7.3- 76.3- 4.7 3.7---- 0.0------------
1987-06-18 11.7 16.1 7.2- 77.0- 3.0 5.0---- 1.8------------
1987-06-17 12.3 15.0 10.5- 69.5- 3.0 5.0---- 0.0------------
1987-06-16 12.4 20.1 9.4- 91.5- 8.0 4.7---- 8.8------------
378.8 ms

 

Źródłem pochodzenia danych jest Instytut Meteorologii i Gospodarki Wodnej – Państwowy Instytut Badawczy. Dane Instytutu Meteorologii i Gospodarki Wodnej – Państwowego Instytutu Badawczego zostały przetworzone.

Dane źródłowe można odnaleźć na stronie https://dane.imgw.pl